ETD56T OMSJ-OBBI
Flight info
| Callsign | ETD56T |
|---|---|
| Flight time | 0h 54m |
| Altitude | 26000 |
| Route | NABIX P699 ALKAN M556 ORDIG |
| Aircraft | B78X/H-SDE1E2E3FGHIJ2J3J4J5M1RWXY/LB1D1 |
Departure
| Time | 2026-04-24 06:27 |
|---|---|
| Airport | Sharjah International Airport (OMSJ) |
Arrival
| Time | 2026-04-24 07:22 |
|---|---|
| Airport | Bahrain International Airport (OBBI) |
| Time | Latitude | Longitude | Altitude | Speed | Heading |
|---|---|---|---|---|---|
| 2026-04-24 06:07 | 25.32477 | 55.50863 | 108 ft | 0 kts | 302° |
| 2026-04-24 06:16 | 25.32470 | 55.50876 | 108 ft | 2 kts | 304° |
| 2026-04-24 06:16 | 25.32461 | 55.50891 | 108 ft | 2 kts | 306° |
| 2026-04-24 06:16 | 25.32451 | 55.50906 | 108 ft | 2 kts | 311° |
| 2026-04-24 06:16 | 25.32440 | 55.50920 | 108 ft | 2 kts | 335° |
| 2026-04-24 06:17 | 25.32424 | 55.50922 | 109 ft | 2 kts | 29° |
| 2026-04-24 06:17 | 25.32419 | 55.50919 | 109 ft | 0 kts | 32° |
| 2026-04-24 06:19 | 25.32445 | 55.50937 | 110 ft | 9 kts | 32° |
| 2026-04-24 06:19 | 25.32514 | 55.50986 | 110 ft | 15 kts | 32° |
| 2026-04-24 06:19 | 25.32621 | 55.51061 | 111 ft | 21 kts | 32° |
| 2026-04-24 06:20 | 25.32769 | 55.51162 | 110 ft | 27 kts | 32° |
| 2026-04-24 06:20 | 25.32928 | 55.51272 | 112 ft | 27 kts | 32° |
| 2026-04-24 06:20 | 25.33032 | 55.51384 | 111 ft | 14 kts | 82° |
| 2026-04-24 06:20 | 25.33002 | 55.51472 | 110 ft | 12 kts | 121° |
| 2026-04-24 06:21 | 25.32948 | 55.51568 | 111 ft | 16 kts | 122° |
| 2026-04-24 06:21 | 25.32883 | 55.51681 | 111 ft | 19 kts | 122° |
| 2026-04-24 06:21 | 25.32809 | 55.51812 | 114 ft | 21 kts | 122° |
| 2026-04-24 06:21 | 25.32726 | 55.51956 | 113 ft | 24 kts | 122° |
| 2026-04-24 06:22 | 25.32635 | 55.52117 | 115 ft | 26 kts | 123° |
| 2026-04-24 06:22 | 25.32534 | 55.52288 | 116 ft | 27 kts | 123° |
| 2026-04-24 06:22 | 25.32427 | 55.52467 | 117 ft | 29 kts | 122° |
| 2026-04-24 06:22 | 25.32316 | 55.52657 | 120 ft | 30 kts | 123° |
| 2026-04-24 06:23 | 25.32201 | 55.52859 | 119 ft | 32 kts | 122° |
| 2026-04-24 06:23 | 25.32081 | 55.53070 | 123 ft | 33 kts | 121° |
| 2026-04-24 06:23 | 25.31958 | 55.53286 | 124 ft | 29 kts | 121° |
| 2026-04-24 06:23 | 25.31966 | 55.53351 | 123 ft | 6 kts | 39° |
| 2026-04-24 06:24 | 25.32025 | 55.53386 | 124 ft | 14 kts | 29° |
| 2026-04-24 06:24 | 25.32133 | 55.53403 | 125 ft | 17 kts | 335° |
| 2026-04-24 06:24 | 25.32180 | 55.53338 | 123 ft | 4 kts | 293° |
| 2026-04-24 06:24 | 25.32184 | 55.53331 | 123 ft | 0 kts | 299° |
| 2026-04-24 06:26 | 25.32186 | 55.53328 | 123 ft | 1 kts | 300° |
| 2026-04-24 06:26 | 25.32189 | 55.53323 | 123 ft | 1 kts | 301° |
| 2026-04-24 06:26 | 25.32205 | 55.53298 | 123 ft | 10 kts | 305° |
| 2026-04-24 06:27 | 25.32371 | 55.53024 | 123 ft | 83 kts | 302° |
| 2026-04-24 06:27 | 25.32834 | 55.52223 | 114 ft | 162 kts | 303° |
| 2026-04-24 06:27 | 25.33479 | 55.51036 | 744 ft | 183 kts | 300° |
| 2026-04-24 06:27 | 25.34092 | 55.49839 | 1659 ft | 184 kts | 303° |
| 2026-04-24 06:28 | 25.34890 | 55.48619 | 1994 ft | 215 kts | 307° |
| 2026-04-24 06:28 | 25.35775 | 55.47181 | 1899 ft | 226 kts | 303° |
| 2026-04-24 06:28 | 25.36619 | 55.45669 | 1966 ft | 236 kts | 302° |
| 2026-04-24 06:28 | 25.37461 | 55.44159 | 1976 ft | 237 kts | 303° |
| 2026-04-24 06:29 | 25.38327 | 55.42638 | 1987 ft | 237 kts | 303° |
| 2026-04-24 06:29 | 25.39208 | 55.41094 | 1951 ft | 236 kts | 303° |
| 2026-04-24 06:29 | 25.40072 | 55.39572 | 1982 ft | 236 kts | 303° |
| 2026-04-24 06:29 | 25.40941 | 55.38076 | 1984 ft | 230 kts | 304° |
| 2026-04-24 06:30 | 25.41833 | 55.36579 | 1976 ft | 230 kts | 304° |
| 2026-04-24 06:30 | 25.42712 | 55.35089 | 1959 ft | 230 kts | 304° |
| 2026-04-24 06:30 | 25.43594 | 55.33584 | 1961 ft | 230 kts | 304° |
| 2026-04-24 06:30 | 25.44460 | 55.32108 | 1962 ft | 233 kts | 304° |
| 2026-04-24 06:31 | 25.45339 | 55.30611 | 1967 ft | 234 kts | 304° |
| 2026-04-24 06:31 | 25.46121 | 55.29050 | 1944 ft | 236 kts | 287° |
| 2026-04-24 06:31 | 25.46176 | 55.27166 | 1986 ft | 260 kts | 268° |
| 2026-04-24 06:31 | 25.46143 | 55.25143 | 1977 ft | 265 kts | 270° |
| 2026-04-24 06:32 | 25.46121 | 55.23092 | 1975 ft | 265 kts | 270° |
| 2026-04-24 06:32 | 25.46081 | 55.21043 | 1980 ft | 266 kts | 270° |
| 2026-04-24 06:32 | 25.46035 | 55.18988 | 2006 ft | 268 kts | 270° |
| 2026-04-24 06:32 | 25.45993 | 55.16936 | 2287 ft | 272 kts | 269° |
| 2026-04-24 06:33 | 25.45951 | 55.14854 | 3255 ft | 269 kts | 270° |
| 2026-04-24 06:33 | 25.45909 | 55.12789 | 4472 ft | 269 kts | 269° |
| 2026-04-24 06:33 | 25.45867 | 55.10715 | 5640 ft | 270 kts | 268° |
| 2026-04-24 06:33 | 25.45791 | 55.08641 | 6768 ft | 270 kts | 261° |
| 2026-04-24 06:34 | 25.45122 | 55.06716 | 7802 ft | 270 kts | 237° |
| 2026-04-24 06:34 | 25.44044 | 55.05003 | 8821 ft | 273 kts | 234° |
| 2026-04-24 06:34 | 25.42927 | 55.03307 | 9863 ft | 274 kts | 234° |
| 2026-04-24 06:34 | 25.41801 | 55.01589 | 10582 ft | 287 kts | 234° |
| 2026-04-24 06:35 | 25.40600 | 54.99732 | 11061 ft | 307 kts | 235° |
| 2026-04-24 06:35 | 25.39317 | 54.97745 | 11481 ft | 328 kts | 234° |
| 2026-04-24 06:35 | 25.37947 | 54.95636 | 11952 ft | 345 kts | 234° |
| 2026-04-24 06:35 | 25.36530 | 54.93456 | 12683 ft | 353 kts | 234° |
| 2026-04-24 06:36 | 25.35076 | 54.91249 | 13469 ft | 359 kts | 231° |
| 2026-04-24 06:36 | 25.33244 | 54.89348 | 14184 ft | 365 kts | 221° |
| 2026-04-24 06:36 | 25.31313 | 54.87500 | 14912 ft | 369 kts | 222° |
| 2026-04-24 06:36 | 25.29399 | 54.85647 | 15643 ft | 373 kts | 222° |
| 2026-04-24 06:37 | 25.27423 | 54.83761 | 16376 ft | 377 kts | 222° |
| 2026-04-24 06:37 | 25.25421 | 54.81863 | 17082 ft | 381 kts | 222° |
| 2026-04-24 06:37 | 25.23407 | 54.79933 | 17780 ft | 385 kts | 224° |
| 2026-04-24 06:37 | 25.21718 | 54.77644 | 18410 ft | 386 kts | 239° |
| 2026-04-24 06:38 | 25.20599 | 54.74952 | 19002 ft | 388 kts | 253° |
| 2026-04-24 06:38 | 25.20124 | 54.72013 | 19580 ft | 391 kts | 268° |
| 2026-04-24 06:38 | 25.20214 | 54.69004 | 20129 ft | 395 kts | 272° |
| 2026-04-24 06:38 | 25.20381 | 54.65952 | 20717 ft | 399 kts | 273° |
| 2026-04-24 06:39 | 25.20571 | 54.62922 | 21252 ft | 403 kts | 273° |
| 2026-04-24 06:39 | 25.20756 | 54.59820 | 21794 ft | 406 kts | 273° |
| 2026-04-24 06:39 | 25.20931 | 54.56694 | 22322 ft | 410 kts | 273° |
| 2026-04-24 06:39 | 25.21136 | 54.53543 | 22835 ft | 414 kts | 277° |
| 2026-04-24 06:40 | 25.21784 | 54.50445 | 23438 ft | 414 kts | 284° |
| 2026-04-24 06:40 | 25.22545 | 54.47386 | 24048 ft | 412 kts | 284° |
| 2026-04-24 06:40 | 25.23318 | 54.44347 | 24668 ft | 410 kts | 285° |
| 2026-04-24 06:40 | 25.24085 | 54.41325 | 25304 ft | 407 kts | 284° |
| 2026-04-24 06:41 | 25.24831 | 54.38350 | 25780 ft | 410 kts | 284° |
| 2026-04-24 06:41 | 25.25592 | 54.35305 | 25910 ft | 411 kts | 284° |
| 2026-04-24 06:41 | 25.26352 | 54.32282 | 25902 ft | 408 kts | 284° |
| 2026-04-24 06:41 | 25.27112 | 54.29256 | 25912 ft | 408 kts | 284° |
| 2026-04-24 06:42 | 25.27859 | 54.26236 | 25904 ft | 408 kts | 284° |
| 2026-04-24 06:42 | 25.28603 | 54.23216 | 25913 ft | 408 kts | 284° |
| 2026-04-24 06:42 | 25.29352 | 54.20193 | 25912 ft | 407 kts | 284° |
| 2026-04-24 06:42 | 25.30100 | 54.17178 | 25910 ft | 407 kts | 284° |
| 2026-04-24 06:43 | 25.30837 | 54.14195 | 25903 ft | 407 kts | 284° |
| 2026-04-24 06:43 | 25.31494 | 54.11158 | 25918 ft | 407 kts | 282° |
| 2026-04-24 06:43 | 25.32141 | 54.08113 | 25917 ft | 407 kts | 282° |
| 2026-04-24 06:43 | 25.32805 | 54.05065 | 25918 ft | 407 kts | 282° |
| 2026-04-24 06:44 | 25.33453 | 54.02017 | 25918 ft | 407 kts | 282° |
| 2026-04-24 06:44 | 25.34089 | 53.98971 | 25915 ft | 407 kts | 282° |
| 2026-04-24 06:44 | 25.34731 | 53.95921 | 25915 ft | 407 kts | 282° |
| 2026-04-24 06:44 | 25.35377 | 53.92878 | 25916 ft | 407 kts | 282° |
| 2026-04-24 06:45 | 25.36020 | 53.89832 | 25919 ft | 406 kts | 282° |
| 2026-04-24 06:45 | 25.36650 | 53.86834 | 25919 ft | 406 kts | 282° |
| 2026-04-24 06:45 | 25.37289 | 53.83794 | 25921 ft | 406 kts | 282° |
| 2026-04-24 06:45 | 25.37930 | 53.80750 | 25924 ft | 406 kts | 282° |
| 2026-04-24 06:46 | 25.38571 | 53.77706 | 25924 ft | 406 kts | 282° |
| 2026-04-24 06:46 | 25.39210 | 53.74664 | 25922 ft | 406 kts | 282° |
| 2026-04-24 06:46 | 25.39847 | 53.71627 | 25924 ft | 406 kts | 282° |
| 2026-04-24 06:46 | 25.40483 | 53.68592 | 25923 ft | 405 kts | 282° |
| 2026-04-24 06:47 | 25.41119 | 53.65557 | 25928 ft | 405 kts | 282° |
| 2026-04-24 06:47 | 25.41745 | 53.62563 | 25926 ft | 405 kts | 282° |
| 2026-04-24 06:47 | 25.42378 | 53.59532 | 25928 ft | 405 kts | 282° |
| 2026-04-24 06:47 | 25.43011 | 53.56501 | 25932 ft | 405 kts | 281° |
| 2026-04-24 06:48 | 25.43643 | 53.53467 | 25932 ft | 404 kts | 281° |
| 2026-04-24 06:48 | 25.44273 | 53.50441 | 25934 ft | 404 kts | 281° |
| 2026-04-24 06:48 | 25.44902 | 53.47412 | 25932 ft | 404 kts | 281° |
| 2026-04-24 06:48 | 25.45530 | 53.44389 | 25930 ft | 403 kts | 281° |
| 2026-04-24 06:49 | 25.46158 | 53.41359 | 25935 ft | 403 kts | 281° |
| 2026-04-24 06:49 | 25.46784 | 53.38339 | 25933 ft | 403 kts | 281° |
| 2026-04-24 06:49 | 25.47402 | 53.35352 | 25931 ft | 403 kts | 281° |
| 2026-04-24 06:49 | 25.48027 | 53.32331 | 25931 ft | 403 kts | 281° |
| 2026-04-24 06:50 | 25.48652 | 53.29304 | 25931 ft | 403 kts | 281° |
| 2026-04-24 06:50 | 25.49276 | 53.26279 | 25935 ft | 403 kts | 281° |
| 2026-04-24 06:50 | 25.49900 | 53.23255 | 25933 ft | 403 kts | 281° |
| 2026-04-24 06:50 | 25.50521 | 53.20233 | 25934 ft | 403 kts | 281° |
| 2026-04-24 06:51 | 25.51140 | 53.17210 | 25934 ft | 403 kts | 281° |
| 2026-04-24 06:51 | 25.51760 | 53.14188 | 25928 ft | 403 kts | 281° |
| 2026-04-24 06:51 | 25.52380 | 53.11160 | 25931 ft | 403 kts | 281° |
| 2026-04-24 06:51 | 25.52989 | 53.08182 | 25933 ft | 403 kts | 281° |
| 2026-04-24 06:52 | 25.53607 | 53.05154 | 25935 ft | 403 kts | 281° |
| 2026-04-24 06:52 | 25.54224 | 53.02133 | 25932 ft | 402 kts | 281° |
| 2026-04-24 06:52 | 25.54840 | 52.99108 | 25930 ft | 403 kts | 281° |
| 2026-04-24 06:52 | 25.55457 | 52.96082 | 25933 ft | 403 kts | 281° |
| 2026-04-24 06:53 | 25.56073 | 52.93055 | 25939 ft | 403 kts | 282° |
| 2026-04-24 06:53 | 25.56963 | 52.90114 | 25930 ft | 406 kts | 292° |
| 2026-04-24 06:53 | 25.58265 | 52.87339 | 25931 ft | 407 kts | 295° |
| 2026-04-24 06:53 | 25.59587 | 52.84615 | 25933 ft | 406 kts | 296° |
| 2026-04-24 06:54 | 25.60934 | 52.81865 | 25928 ft | 406 kts | 296° |
| 2026-04-24 06:54 | 25.62280 | 52.79114 | 25933 ft | 406 kts | 296° |
| 2026-04-24 06:54 | 25.63621 | 52.76359 | 25934 ft | 406 kts | 296° |
| 2026-04-24 06:54 | 25.64959 | 52.73609 | 25933 ft | 406 kts | 296° |
| 2026-04-24 06:55 | 25.66300 | 52.70855 | 25932 ft | 406 kts | 296° |
| 2026-04-24 06:55 | 25.67638 | 52.68106 | 25936 ft | 405 kts | 296° |
| 2026-04-24 06:55 | 25.68977 | 52.65353 | 25933 ft | 405 kts | 296° |
| 2026-04-24 06:55 | 25.70312 | 52.62604 | 25933 ft | 405 kts | 296° |
| 2026-04-24 06:56 | 25.71596 | 52.59961 | 25933 ft | 405 kts | 296° |
| 2026-04-24 06:56 | 25.72930 | 52.57212 | 25931 ft | 405 kts | 296° |
| 2026-04-24 06:56 | 25.74265 | 52.54460 | 25932 ft | 405 kts | 296° |
| 2026-04-24 06:56 | 25.75598 | 52.51710 | 25932 ft | 405 kts | 296° |
| 2026-04-24 06:57 | 25.76923 | 52.48955 | 25935 ft | 405 kts | 295° |
| 2026-04-24 06:57 | 25.78203 | 52.46178 | 25932 ft | 404 kts | 294° |
| 2026-04-24 06:57 | 25.79476 | 52.43394 | 25933 ft | 404 kts | 295° |
| 2026-04-24 06:57 | 25.80749 | 52.40659 | 25935 ft | 404 kts | 295° |
| 2026-04-24 06:58 | 25.82046 | 52.37892 | 25931 ft | 404 kts | 295° |
| 2026-04-24 06:58 | 25.83333 | 52.35121 | 25934 ft | 404 kts | 295° |
| 2026-04-24 06:58 | 25.84616 | 52.32347 | 25935 ft | 404 kts | 295° |
| 2026-04-24 06:58 | 25.85901 | 52.29574 | 25933 ft | 404 kts | 295° |
| 2026-04-24 06:59 | 25.87341 | 52.26903 | 25938 ft | 406 kts | 304° |
| 2026-04-24 06:59 | 25.89189 | 52.24518 | 25931 ft | 407 kts | 309° |
| 2026-04-24 06:59 | 25.91102 | 52.22199 | 25932 ft | 407 kts | 309° |
| 2026-04-24 06:59 | 25.93019 | 52.19886 | 25933 ft | 407 kts | 309° |
| 2026-04-24 07:00 | 25.94936 | 52.17578 | 25933 ft | 407 kts | 309° |
| 2026-04-24 07:00 | 25.96826 | 52.15294 | 25932 ft | 407 kts | 309° |
| 2026-04-24 07:00 | 25.98737 | 52.12980 | 25936 ft | 406 kts | 309° |
| 2026-04-24 07:00 | 26.00646 | 52.10671 | 25936 ft | 406 kts | 309° |
| 2026-04-24 07:01 | 26.02562 | 52.08353 | 25937 ft | 406 kts | 309° |
| 2026-04-24 07:01 | 26.04474 | 52.06039 | 25934 ft | 406 kts | 309° |
| 2026-04-24 07:01 | 26.06383 | 52.03726 | 25937 ft | 406 kts | 309° |
| 2026-04-24 07:01 | 26.08293 | 52.01413 | 25937 ft | 406 kts | 309° |
| 2026-04-24 07:02 | 26.10203 | 51.99100 | 25931 ft | 405 kts | 309° |
| 2026-04-24 07:02 | 26.12020 | 51.96899 | 25836 ft | 401 kts | 309° |
| 2026-04-24 07:02 | 26.13893 | 51.94628 | 25790 ft | 395 kts | 309° |
| 2026-04-24 07:02 | 26.15730 | 51.92400 | 25749 ft | 386 kts | 309° |
| 2026-04-24 07:03 | 26.17517 | 51.90232 | 25686 ft | 373 kts | 308° |
| 2026-04-24 07:03 | 26.19242 | 51.88138 | 25620 ft | 361 kts | 308° |
| 2026-04-24 07:03 | 26.20866 | 51.86163 | 25551 ft | 350 kts | 308° |
| 2026-04-24 07:03 | 26.22481 | 51.84199 | 25473 ft | 339 kts | 308° |
| 2026-04-24 07:04 | 26.24054 | 51.82285 | 25269 ft | 333 kts | 308° |
| 2026-04-24 07:04 | 26.25443 | 51.80268 | 24988 ft | 323 kts | 295° |
| 2026-04-24 07:04 | 26.26444 | 51.78082 | 24649 ft | 321 kts | 293° |
| 2026-04-24 07:04 | 26.27434 | 51.75853 | 24285 ft | 321 kts | 293° |
| 2026-04-24 07:05 | 26.28420 | 51.73620 | 23911 ft | 321 kts | 293° |
| 2026-04-24 07:05 | 26.29415 | 51.71386 | 23527 ft | 322 kts | 293° |
| 2026-04-24 07:05 | 26.30414 | 51.69152 | 23073 ft | 323 kts | 293° |
| 2026-04-24 07:05 | 26.31412 | 51.66910 | 22607 ft | 323 kts | 293° |
| 2026-04-24 07:06 | 26.32410 | 51.64666 | 22148 ft | 323 kts | 294° |
| 2026-04-24 07:06 | 26.33412 | 51.62420 | 21687 ft | 324 kts | 294° |
| 2026-04-24 07:06 | 26.34417 | 51.60170 | 21228 ft | 324 kts | 294° |
| 2026-04-24 07:06 | 26.35407 | 51.57947 | 20767 ft | 325 kts | 294° |
| 2026-04-24 07:07 | 26.36411 | 51.55691 | 20301 ft | 325 kts | 294° |
| 2026-04-24 07:07 | 26.37417 | 51.53431 | 19829 ft | 326 kts | 294° |
| 2026-04-24 07:07 | 26.39027 | 51.48715 | 18829 ft | 326 kts | 288° |
| 2026-04-24 07:08 | 26.39798 | 51.46334 | 18344 ft | 327 kts | 288° |
| 2026-04-24 07:08 | 26.40566 | 51.43945 | 17787 ft | 328 kts | 287° |
| 2026-04-24 07:08 | 26.41332 | 51.41540 | 17196 ft | 329 kts | 287° |
| 2026-04-24 07:08 | 26.42100 | 51.39130 | 16599 ft | 330 kts | 287° |
| 2026-04-24 07:09 | 26.42860 | 51.36750 | 16007 ft | 331 kts | 287° |
| 2026-04-24 07:09 | 26.43637 | 51.34321 | 15400 ft | 332 kts | 286° |
| 2026-04-24 07:09 | 26.44415 | 51.31891 | 14795 ft | 333 kts | 286° |
| 2026-04-24 07:09 | 26.45170 | 51.29443 | 14171 ft | 333 kts | 281° |
| 2026-04-24 07:10 | 26.45453 | 51.26910 | 13415 ft | 323 kts | 268° |
| 2026-04-24 07:10 | 26.45139 | 51.24441 | 11886 ft | 323 kts | 252° |
| 2026-04-24 07:10 | 26.44625 | 51.22896 | 11142 ft | 317 kts | 246° |
| 2026-04-24 07:10 | 26.43545 | 51.19981 | 10163 ft | 295 kts | 247° |
| 2026-04-24 07:11 | 26.42794 | 51.17940 | 9608 ft | 277 kts | 247° |
| 2026-04-24 07:11 | 26.42079 | 51.16020 | 9130 ft | 258 kts | 247° |
| 2026-04-24 07:11 | 26.41403 | 51.14204 | 8425 ft | 250 kts | 247° |
| 2026-04-24 07:11 | 26.40742 | 51.12423 | 7658 ft | 247 kts | 248° |
| 2026-04-24 07:12 | 26.40307 | 51.11253 | 7137 ft | 246 kts | 248° |
| 2026-04-24 07:12 | 26.39647 | 51.09477 | 6625 ft | 248 kts | 248° |
| 2026-04-24 07:12 | 26.38769 | 51.07113 | 6121 ft | 245 kts | 248° |
| 2026-04-24 07:12 | 26.38337 | 51.05950 | 5858 ft | 244 kts | 248° |
| 2026-04-24 07:13 | 26.37475 | 51.03635 | 5289 ft | 244 kts | 248° |
| 2026-04-24 07:13 | 26.36823 | 51.01888 | 4880 ft | 244 kts | 248° |
| 2026-04-24 07:13 | 26.36393 | 51.00728 | 4619 ft | 244 kts | 248° |
| 2026-04-24 07:13 | 26.35741 | 50.98978 | 4179 ft | 245 kts | 247° |
| 2026-04-24 07:14 | 26.34885 | 50.97348 | 3753 ft | 247 kts | 225° |
| 2026-04-24 07:14 | 26.33563 | 50.96151 | 3372 ft | 240 kts | 221° |
| 2026-04-24 07:14 | 26.32328 | 50.94969 | 2932 ft | 228 kts | 225° |
| 2026-04-24 07:14 | 26.31199 | 50.93802 | 2622 ft | 215 kts | 226° |
| 2026-04-24 07:15 | 26.29773 | 50.92332 | 2191 ft | 208 kts | 226° |
| 2026-04-24 07:15 | 26.29058 | 50.91603 | 2074 ft | 205 kts | 226° |
| 2026-04-24 07:15 | 26.28010 | 50.90538 | 1844 ft | 203 kts | 226° |
| 2026-04-24 07:15 | 26.26977 | 50.89488 | 1633 ft | 203 kts | 225° |
| 2026-04-24 07:16 | 26.26009 | 50.88375 | 1492 ft | 198 kts | 237° |
| 2026-04-24 07:16 | 26.25167 | 50.87119 | 1509 ft | 200 kts | 233° |
| 2026-04-24 07:16 | 26.24277 | 50.85936 | 1547 ft | 195 kts | 233° |
| 2026-04-24 07:16 | 26.23448 | 50.84802 | 1515 ft | 181 kts | 235° |
| 2026-04-24 07:17 | 26.22643 | 50.83666 | 1528 ft | 195 kts | 235° |
| 2026-04-24 07:17 | 26.21806 | 50.82495 | 1518 ft | 196 kts | 235° |
| 2026-04-24 07:17 | 26.20951 | 50.81300 | 1519 ft | 194 kts | 234° |
| 2026-04-24 07:17 | 26.20123 | 50.80149 | 1529 ft | 192 kts | 235° |
| 2026-04-24 07:18 | 26.19319 | 50.78968 | 1516 ft | 195 kts | 241° |
| 2026-04-24 07:18 | 26.19091 | 50.77561 | 1465 ft | 182 kts | 285° |
| 2026-04-24 07:18 | 26.19676 | 50.76346 | 1524 ft | 177 kts | 305° |
| 2026-04-24 07:18 | 26.20310 | 50.75150 | 1517 ft | 176 kts | 305° |
| 2026-04-24 07:19 | 26.20955 | 50.74001 | 1520 ft | 180 kts | 305° |
| 2026-04-24 07:19 | 26.21577 | 50.72909 | 1517 ft | 156 kts | 306° |
| 2026-04-24 07:19 | 26.22148 | 50.71931 | 1471 ft | 151 kts | 306° |
| 2026-04-24 07:19 | 26.22703 | 50.70945 | 1282 ft | 150 kts | 307° |
| 2026-04-24 07:20 | 26.23285 | 50.69958 | 1072 ft | 149 kts | 308° |
| 2026-04-24 07:20 | 26.23833 | 50.69002 | 900 ft | 148 kts | 308° |
| 2026-04-24 07:20 | 26.24409 | 50.68014 | 714 ft | 156 kts | 306° |
| 2026-04-24 07:20 | 26.24969 | 50.67020 | 467 ft | 145 kts | 306° |
| 2026-04-24 07:21 | 26.25508 | 50.66061 | 298 ft | 152 kts | 307° |
| 2026-04-24 07:21 | 26.26074 | 50.65097 | 59 ft | 146 kts | 307° |
| 2026-04-24 07:21 | 26.26629 | 50.64153 | 25 ft | 134 kts | 304° |
| 2026-04-24 07:21 | 26.27000 | 50.63503 | 22 ft | 66 kts | 302° |
| 2026-04-24 07:22 | 26.27162 | 50.63231 | 24 ft | 25 kts | 302° |
| 2026-04-24 07:22 | 26.27213 | 50.63115 | 24 ft | 20 kts | 295° |
| 2026-04-24 07:22 | 26.27260 | 50.62911 | 28 ft | 32 kts | 274° |
| 2026-04-24 07:22 | 26.27259 | 50.62815 | 29 ft | 5 kts | 269° |
| 2026-04-24 07:23 | 26.27259 | 50.62802 | 25 ft | 1 kts | 269° |
| 2026-04-24 07:23 | 26.27258 | 50.62801 | 25 ft | 0 kts | 261° |
| 2026-04-24 07:23 | 26.27253 | 50.62797 | 25 ft | 1 kts | 235° |
| 2026-04-24 07:23 | 26.27238 | 50.62795 | 29 ft | 3 kts | 184° |
| 2026-04-24 07:24 | 26.27221 | 50.62809 | 27 ft | 5 kts | 141° |
| 2026-04-24 07:24 | 26.27184 | 50.62857 | 26 ft | 10 kts | 129° |
| 2026-04-24 07:24 | 26.27136 | 50.62898 | 28 ft | 7 kts | 156° |
| 2026-04-24 07:24 | 26.27110 | 50.62897 | 25 ft | 3 kts | 189° |
| 2026-04-24 07:25 | 26.27088 | 50.62892 | 28 ft | 4 kts | 191° |
| 2026-04-24 07:25 | 26.27062 | 50.62892 | 25 ft | 3 kts | 176° |
| 2026-04-24 07:25 | 26.27028 | 50.62906 | 29 ft | 12 kts | 150° |
| 2026-04-24 07:25 | 26.26967 | 50.62988 | 26 ft | 16 kts | 124° |
| 2026-04-24 07:26 | 26.26898 | 50.63100 | 25 ft | 18 kts | 124° |
| 2026-04-24 07:26 | 26.26852 | 50.63153 | 27 ft | 1 kts | 175° |
| 2026-04-24 07:26 | 26.26846 | 50.63146 | 27 ft | 1 kts | 219° |
| 2026-04-24 07:26 | 26.26836 | 50.63125 | 28 ft | 4 kts | 235° |
| 2026-04-24 07:27 | 26.26829 | 50.63102 | 27 ft | 5 kts | 258° |
| 2026-04-24 07:27 | 26.26814 | 50.63067 | 26 ft | 1 kts | 223° |
| 2026-04-24 07:27 | 26.26808 | 50.63062 | 27 ft | 0 kts | 216° |